Terminal Aerodrome Forecast
Issued by NWS

Home | Current Version | Previous Version | Graphics & Text | Print | Product List | Glossary On
Versions: 1 2 3 4 5 6 7 8 9 10 11 12
000
FTUS45 KGGW 170531
TAFGDV
TAF
KGDV 170531Z 1706/1806 28007KT P6SM BKN090
     FM171100 VRB04KT P6SM BKN130
     FM180300 28012KT P6SM BKN060=

USA.gov is the U.S. government's official web portal to all federal, state and local government web resources and services.